EPWR/WRO METAR and TAF weather

Enter ICAO airport designator
Station Type Date Time Source
EPWR METAR 2018/01/22 12:00 UTC NOAA

EPWR 221200Z 15011KT 9999 FEW018 00/M04 Q1015


Station Type Date Time Source
EPWR Decoded METAR 2018/01/22 12:00 UTC NOAA

Wroclaw Ii, Poland (EPWR) 51-06N 016-53E 121M
Jan 22, 2018 - 07:00 AM EST / 2018.01.22 1200 UTC
Wind: from the SSE (150 degrees) at 13 MPH (11 KT):0
Visibility: greater than 7 mile(s):0
Sky conditions: mostly clear
Temperature: 32 F (0 C)
Windchill: 23 F (-5 C):1
Dew Point: 24 F (-4 C)
Relative Humidity: 74%
Pressure (altimeter): 29.97 in. Hg (1015 hPa)
ob: EPWR 221200Z 15011KT 9999 FEW018 00/M04 Q1015
cycle: 12

Station Type Date Time Source
EPWR TAF 2018/01/22 12:33 UTC NOAA

TAF EPWR 221130Z 2212/2312 15012KT CAVOK PROB40
TEMPO 2300/2310 2500 -SN BR BKN004 BKN010
BECMG 2303/2306 BKN011


Example: see airport list